EGQL/ADX METAR and TAF weather

Enter ICAO airport designator
Station Type Date Time Source
EGQL METAR 2018/01/19 22:50 UTC NOAA

EGQL 192250Z 27010KT CAVOK 01/M00 Q0998 BLU


Station Type Date Time Source
EGQL Decoded METAR 2018/01/19 22:50 UTC NOAA

Leuchars, United Kingdom (EGQL) 56-23N 002-52W 0M
Jan 19, 2018 - 05:50 PM EST / 2018.01.19 2250 UTC
Wind: from the W (270 degrees) at 12 MPH (10 KT):0
Visibility: greater than 7 mile(s):0
Temperature: 33 F (1 C)
Windchill: 24 F (-4 C):1
Dew Point: 32 F (0 C)
Relative Humidity: 93%
Pressure (altimeter): 29.47 in. Hg (0998 hPa)
ob: EGQL 192250Z 27010KT CAVOK 01/M00 Q0998 BLU
cycle: 23

Station Type Date Time Source
EGQL TAF 2011/07/27 06:03 UTC NOAA

TAF TAF
AMD EGQL 270424Z 2706/2724 14005KT 9999 BKN020 PROB30
TEMPO 2706/2708 SCT012
BECMG 2708/2710 SCT025


Example: see airport list